sensor_id;sensor_type;location;lat;lon;timestamp;pressure;altitude;pressure_sealevel;temperature;humidity
41044;BME280;51680;49.806;18.774;2023-03-04T00:01:22;97503.09;;;2.17;75.65
41044;BME280;51680;49.806;18.774;2023-03-04T00:04:24;97503.91;;;2.18;75.24
41044;BME280;51680;49.806;18.774;2023-03-04T00:07:25;97502.97;;;2.20;75.38
41044;BME280;51680;49.806;18.774;2023-03-04T00:10:29;97500.19;;;2.28;75.18
41044;BME280;51680;49.806;18.774;2023-03-04T00:13:30;97496.72;;;2.29;74.92
41044;BME280;51680;49.806;18.774;2023-03-04T00:16:32;97490.97;;;2.21;75.25
41044;BME280;51680;49.806;18.774;2023-03-04T00:19:34;97482.34;;;2.22;75.03
41044;BME280;51680;49.806;18.774;2023-03-04T00:22:36;97496.09;;;2.21;75.02
41044;BME280;51680;49.806;18.774;2023-03-04T00:25:39;97488.72;;;2.38;74.74
41044;BME280;51680;49.806;18.774;2023-03-04T00:28:41;97486.88;;;2.43;74.73
41044;BME280;51680;49.806;18.774;2023-03-04T00:31:43;97477.34;;;2.45;74.38
41044;BME280;51680;49.806;18.774;2023-03-04T00:34:44;97479.53;;;2.29;75.54
41044;BME280;51680;49.806;18.774;2023-03-04T00:37:46;97466.94;;;2.20;75.39
41044;BME280;51680;49.806;18.774;2023-03-04T00:40:51;97470.44;;;2.18;75.51
41044;BME280;51680;49.806;18.774;2023-03-04T00:43:53;97461.75;;;2.22;75.03
41044;BME280;51680;49.806;18.774;2023-03-04T00:46:55;97455.84;;;2.18;75.20
41044;BME280;51680;49.806;18.774;2023-03-04T00:49:57;97458.47;;;2.17;75.28
41044;BME280;51680;49.806;18.774;2023-03-04T00:52:58;97450.47;;;2.26;74.63
41044;BME280;51680;49.806;18.774;2023-03-04T00:56:02;97449.47;;;2.30;74.46
41044;BME280;51680;49.806;18.774;2023-03-04T00:59:04;97449.81;;;2.19;77.58
41044;BME280;51680;49.806;18.774;2023-03-04T01:02:06;97440.97;;;2.28;74.25
41044;BME280;51680;49.806;18.774;2023-03-04T01:05:08;97429.78;;;2.29;74.57
41044;BME280;51680;49.806;18.774;2023-03-04T01:08:10;97421.91;;;2.33;73.94
41044;BME280;51680;49.806;18.774;2023-03-04T01:11:13;97418.81;;;2.22;74.21
41044;BME280;51680;49.806;18.774;2023-03-04T01:14:15;97415.50;;;2.19;73.99
41044;BME280;51680;49.806;18.774;2023-03-04T01:17:17;97419.63;;;1.97;74.67
41044;BME280;51680;49.806;18.774;2023-03-04T01:20:19;97416.47;;;1.87;75.03
41044;BME280;51680;49.806;18.774;2023-03-04T01:23:21;97409.91;;;1.77;75.09
41044;BME280;51680;49.806;18.774;2023-03-04T01:26:24;97398.19;;;1.67;75.45
41044;BME280;51680;49.806;18.774;2023-03-04T01:29:44;97393.91;;;1.68;75.41
41044;BME280;51680;49.806;18.774;2023-03-04T01:32:46;97386.44;;;1.59;75.33
41044;BME280;51680;49.806;18.774;2023-03-04T01:35:50;97390.31;;;1.44;76.03
41044;BME280;51680;49.806;18.774;2023-03-04T01:38:52;97395.78;;;1.32;76.84
41044;BME280;51680;49.806;18.774;2023-03-04T01:41:55;97383.28;;;1.20;77.27
41044;BME280;51680;49.806;18.774;2023-03-04T01:44:57;97382.59;;;1.14;77.27
41044;BME280;51680;49.806;18.774;2023-03-04T01:47:59;97368.97;;;1.10;77.74
41044;BME280;51680;49.806;18.774;2023-03-04T01:51:01;97362.16;;;1.09;77.61
41044;BME280;51680;49.806;18.774;2023-03-04T01:54:03;97361.53;;;1.01;78.03
41044;BME280;51680;49.806;18.774;2023-03-04T01:57:14;97359.91;;;0.99;78.23
41044;BME280;51680;49.806;18.774;2023-03-04T02:00:24;97344.72;;;0.90;79.08
41044;BME280;51680;49.806;18.774;2023-03-04T02:03:26;97346.06;;;0.72;80.00
41044;BME280;51680;49.806;18.774;2023-03-04T02:06:28;97334.53;;;0.54;80.97
41044;BME280;51680;49.806;18.774;2023-03-04T02:09:31;97333.03;;;0.46;81.89
41044;BME280;51680;49.806;18.774;2023-03-04T02:12:35;97326.88;;;0.53;81.16
41044;BME280;51680;49.806;18.774;2023-03-04T02:15:36;97322.84;;;0.43;82.08
41044;BME280;51680;49.806;18.774;2023-03-04T02:18:38;97318.47;;;0.48;81.18
41044;BME280;51680;49.806;18.774;2023-03-04T02:21:40;97314.06;;;0.53;80.78
41044;BME280;51680;49.806;18.774;2023-03-04T02:24:44;97314.97;;;0.51;81.13
41044;BME280;51680;49.806;18.774;2023-03-04T02:27:50;97302.00;;;0.55;81.04
41044;BME280;51680;49.806;18.774;2023-03-04T02:30:52;97299.25;;;0.61;80.54
41044;BME280;51680;49.806;18.774;2023-03-04T02:33:56;97293.25;;;0.62;80.14
41044;BME280;51680;49.806;18.774;2023-03-04T02:37:01;97284.00;;;0.57;80.60
41044;BME280;51680;49.806;18.774;2023-03-04T02:40:08;97277.94;;;0.59;80.59
41044;BME280;51680;49.806;18.774;2023-03-04T02:43:15;97270.28;;;0.57;81.00
41044;BME280;51680;49.806;18.774;2023-03-04T02:46:18;97258.31;;;0.57;81.24
41044;BME280;51680;49.806;18.774;2023-03-04T02:49:22;97257.47;;;0.56;81.65
41044;BME280;51680;49.806;18.774;2023-03-04T02:52:25;97247.44;;;0.47;81.78
41044;BME280;51680;49.806;18.774;2023-03-04T02:55:27;97241.53;;;0.45;81.70
41044;BME280;51680;49.806;18.774;2023-03-04T02:58:30;97242.41;;;0.44;81.76
41044;BME280;51680;49.806;18.774;2023-03-04T03:01:32;97235.50;;;0.46;81.54
41044;BME280;51680;49.806;18.774;2023-03-04T03:04:36;97241.25;;;0.56;80.83
41044;BME280;51680;49.806;18.774;2023-03-04T03:07:42;97232.69;;;0.55;80.87
41044;BME280;51680;49.806;18.774;2023-03-04T03:10:44;97236.84;;;0.59;80.43
41044;BME280;51680;49.806;18.774;2023-03-04T03:13:47;97236.50;;;0.71;79.91
41044;BME280;51680;49.806;18.774;2023-03-04T03:16:49;97217.66;;;0.72;80.10
41044;BME280;51680;49.806;18.774;2023-03-04T03:19:51;97215.81;;;0.77;80.03
41044;BME280;51680;49.806;18.774;2023-03-04T03:22:52;97198.59;;;0.79;80.13
41044;BME280;51680;49.806;18.774;2023-03-04T03:25:54;97206.06;;;0.88;79.46
41044;BME280;51680;49.806;18.774;2023-03-04T03:28:57;97197.34;;;0.94;78.54
41044;BME280;51680;49.806;18.774;2023-03-04T03:32:01;97196.47;;;0.93;78.40
41044;BME280;51680;49.806;18.774;2023-03-04T03:35:04;97196.28;;;0.99;77.90
41044;BME280;51680;49.806;18.774;2023-03-04T03:38:06;97196.22;;;1.02;78.13
41044;BME280;51680;49.806;18.774;2023-03-04T03:41:07;97193.53;;;1.05;77.87
41044;BME280;51680;49.806;18.774;2023-03-04T03:44:29;97187.34;;;1.12;77.87
41044;BME280;51680;49.806;18.774;2023-03-04T03:47:31;97182.91;;;1.17;77.54
41044;BME280;51680;49.806;18.774;2023-03-04T03:50:33;97172.47;;;1.22;77.40
41044;BME280;51680;49.806;18.774;2023-03-04T03:53:35;97178.31;;;1.27;77.17
41044;BME280;51680;49.806;18.774;2023-03-04T03:56:36;97186.78;;;1.30;76.80
41044;BME280;51680;49.806;18.774;2023-03-04T03:59:39;97182.22;;;1.38;76.50
41044;BME280;51680;49.806;18.774;2023-03-04T04:02:41;97179.47;;;1.44;76.04
41044;BME280;51680;49.806;18.774;2023-03-04T04:05:43;97178.09;;;1.60;75.57
41044;BME280;51680;49.806;18.774;2023-03-04T04:08:45;97179.63;;;1.66;74.81
41044;BME280;51680;49.806;18.774;2023-03-04T04:11:46;97178.78;;;1.65;74.59
41044;BME280;51680;49.806;18.774;2023-03-04T04:14:50;97179.88;;;1.58;74.58
41044;BME280;51680;49.806;18.774;2023-03-04T04:17:51;97176.00;;;1.45;75.15
41044;BME280;51680;49.806;18.774;2023-03-04T04:20:53;97174.34;;;1.44;75.21
41044;BME280;51680;49.806;18.774;2023-03-04T04:23:55;97178.59;;;1.45;74.92
41044;BME280;51680;49.806;18.774;2023-03-04T04:26:56;97187.88;;;1.49;74.35
41044;BME280;51680;49.806;18.774;2023-03-04T04:30:00;97192.19;;;1.49;74.14
41044;BME280;51680;49.806;18.774;2023-03-04T04:33:01;97183.00;;;1.42;73.79
41044;BME280;51680;49.806;18.774;2023-03-04T04:36:04;97179.59;;;1.40;73.62
41044;BME280;51680;49.806;18.774;2023-03-04T04:39:06;97184.88;;;1.37;73.83
41044;BME280;51680;49.806;18.774;2023-03-04T04:42:08;97185.59;;;1.40;73.77
41044;BME280;51680;49.806;18.774;2023-03-04T04:45:12;97186.53;;;1.38;73.56
41044;BME280;51680;49.806;18.774;2023-03-04T04:48:14;97185.00;;;1.32;73.35
41044;BME280;51680;49.806;18.774;2023-03-04T04:51:35;97188.53;;;1.28;73.52
41044;BME280;51680;49.806;18.774;2023-03-04T04:54:37;97191.31;;;1.22;73.81
41044;BME280;51680;49.806;18.774;2023-03-04T04:57:39;97196.41;;;1.24;73.94
41044;BME280;51680;49.806;18.774;2023-03-04T05:00:42;97186.16;;;1.22;73.95
41044;BME280;51680;49.806;18.774;2023-03-04T05:03:44;97204.25;;;1.19;73.43
41044;BME280;51680;49.806;18.774;2023-03-04T05:06:46;97204.34;;;1.16;73.44
41044;BME280;51680;49.806;18.774;2023-03-04T05:09:47;97203.72;;;1.08;73.41
41044;BME280;51680;49.806;18.774;2023-03-04T05:12:49;97214.28;;;0.99;73.49
41044;BME280;51680;49.806;18.774;2023-03-04T05:15:53;97217.09;;;0.90;74.12
41044;BME280;51680;49.806;18.774;2023-03-04T05:18:55;97225.78;;;0.86;73.93
41044;BME280;51680;49.806;18.774;2023-03-04T05:21:57;97233.69;;;0.80;73.99
41044;BME280;51680;49.806;18.774;2023-03-04T05:24:58;97229.34;;;0.82;74.32
41044;BME280;51680;49.806;18.774;2023-03-04T05:28:00;97226.06;;;0.77;74.67
41044;BME280;51680;49.806;18.774;2023-03-04T05:31:05;97237.69;;;0.59;76.88
41044;BME280;51680;49.806;18.774;2023-03-04T05:34:07;97239.16;;;0.68;74.85
41044;BME280;51680;49.806;18.774;2023-03-04T05:37:09;97235.63;;;0.72;75.38
41044;BME280;51680;49.806;18.774;2023-03-04T05:40:12;97251.31;;;0.92;74.82
41044;BME280;51680;49.806;18.774;2023-03-04T05:43:14;97242.75;;;1.21;74.75
41044;BME280;51680;49.806;18.774;2023-03-04T05:46:18;97246.22;;;1.47;74.32
41044;BME280;51680;49.806;18.774;2023-03-04T05:49:24;97241.97;;;1.72;73.56
41044;BME280;51680;49.806;18.774;2023-03-04T05:52:26;97239.06;;;1.83;73.02
41044;BME280;51680;49.806;18.774;2023-03-04T05:55:28;97239.31;;;1.75;73.26
41044;BME280;51680;49.806;18.774;2023-03-04T05:58:29;97249.84;;;1.68;73.43
41044;BME280;51680;49.806;18.774;2023-03-04T06:01:33;97255.75;;;1.71;73.62
41044;BME280;51680;49.806;18.774;2023-03-04T06:04:34;97253.38;;;1.65;73.81
41044;BME280;51680;49.806;18.774;2023-03-04T06:07:36;97259.22;;;1.70;73.64
41044;BME280;51680;49.806;18.774;2023-03-04T06:10:39;97257.63;;;1.66;73.94
41044;BME280;51680;49.806;18.774;2023-03-04T06:13:41;97257.72;;;1.63;74.29
41044;BME280;51680;49.806;18.774;2023-03-04T06:16:44;97262.75;;;1.66;74.04
41044;BME280;51680;49.806;18.774;2023-03-04T06:19:46;97266.16;;;1.68;74.38
41044;BME280;51680;49.806;18.774;2023-03-04T06:22:48;97268.88;;;1.62;74.46
41044;BME280;51680;49.806;18.774;2023-03-04T06:25:51;97270.38;;;1.69;74.51
41044;BME280;51680;49.806;18.774;2023-03-04T06:28:53;97267.88;;;1.68;74.63
41044;BME280;51680;49.806;18.774;2023-03-04T06:31:57;97268.06;;;1.62;75.00
41044;BME280;51680;49.806;18.774;2023-03-04T06:34:59;97259.16;;;1.72;74.65
41044;BME280;51680;49.806;18.774;2023-03-04T06:38:01;97270.19;;;1.75;74.92
41044;BME280;51680;49.806;18.774;2023-03-04T06:41:06;97271.13;;;1.73;75.14
41044;BME280;51680;49.806;18.774;2023-03-04T06:44:08;97278.94;;;1.70;75.00
41044;BME280;51680;49.806;18.774;2023-03-04T06:47:11;97277.13;;;1.73;74.74
41044;BME280;51680;49.806;18.774;2023-03-04T06:50:13;97289.91;;;1.75;75.04
41044;BME280;51680;49.806;18.774;2023-03-04T06:53:15;97284.41;;;1.87;74.72
41044;BME280;51680;49.806;18.774;2023-03-04T06:56:17;97274.97;;;1.87;74.80
41044;BME280;51680;49.806;18.774;2023-03-04T06:59:19;97274.16;;;1.85;74.40
41044;BME280;51680;49.806;18.774;2023-03-04T07:02:22;97273.38;;;1.83;74.88
41044;BME280;51680;49.806;18.774;2023-03-04T07:05:24;97276.13;;;1.77;75.36
41044;BME280;51680;49.806;18.774;2023-03-04T07:08:26;97268.03;;;1.89;74.86
41044;BME280;51680;49.806;18.774;2023-03-04T07:11:28;97269.94;;;1.83;75.39
41044;BME280;51680;49.806;18.774;2023-03-04T07:14:29;97266.34;;;1.88;74.88
41044;BME280;51680;49.806;18.774;2023-03-04T07:17:32;97263.03;;;2.11;74.70
41044;BME280;51680;49.806;18.774;2023-03-04T07:20:35;97266.25;;;2.17;74.44
41044;BME280;51680;49.806;18.774;2023-03-04T07:23:56;97263.63;;;2.19;73.87
41044;BME280;51680;49.806;18.774;2023-03-04T07:26:57;97261.19;;;2.14;74.01
41044;BME280;51680;49.806;18.774;2023-03-04T07:29:59;97244.75;;;2.18;74.29
41044;BME280;51680;49.806;18.774;2023-03-04T07:33:02;97255.81;;;2.20;74.31
41044;BME280;51680;49.806;18.774;2023-03-04T07:36:05;97260.88;;;2.23;74.31
41044;BME280;51680;49.806;18.774;2023-03-04T07:39:07;97265.13;;;2.24;74.10
41044;BME280;51680;49.806;18.774;2023-03-04T07:42:10;97263.50;;;2.22;73.82
41044;BME280;51680;49.806;18.774;2023-03-04T07:45:15;97256.84;;;2.16;73.82
41044;BME280;51680;49.806;18.774;2023-03-04T07:48:18;97254.19;;;2.18;73.87
41044;BME280;51680;49.806;18.774;2023-03-04T07:51:22;97260.88;;;2.23;73.65
41044;BME280;51680;49.806;18.774;2023-03-04T07:54:24;97261.44;;;2.33;73.35
41044;BME280;51680;49.806;18.774;2023-03-04T07:57:26;97265.47;;;2.40;73.38
41044;BME280;51680;49.806;18.774;2023-03-04T08:00:28;97263.44;;;2.49;73.17
41044;BME280;51680;49.806;18.774;2023-03-04T08:03:31;97267.56;;;2.53;72.78
41044;BME280;51680;49.806;18.774;2023-03-04T08:06:33;97268.69;;;2.46;72.61
41044;BME280;51680;49.806;18.774;2023-03-04T08:09:35;97264.03;;;2.56;72.79
41044;BME280;51680;49.806;18.774;2023-03-04T08:12:38;97275.97;;;2.58;72.73
41044;BME280;51680;49.806;18.774;2023-03-04T08:15:41;97265.75;;;2.57;72.58
41044;BME280;51680;49.806;18.774;2023-03-04T08:18:45;97277.00;;;2.54;72.52
41044;BME280;51680;49.806;18.774;2023-03-04T08:21:48;97280.25;;;2.59;72.26
41044;BME280;51680;49.806;18.774;2023-03-04T08:24:49;97282.56;;;2.67;72.23
41044;BME280;51680;49.806;18.774;2023-03-04T08:27:51;97290.03;;;2.74;72.13
41044;BME280;51680;49.806;18.774;2023-03-04T08:30:53;97287.00;;;2.86;72.00
41044;BME280;51680;49.806;18.774;2023-03-04T08:33:57;97284.31;;;2.89;71.79
41044;BME280;51680;49.806;18.774;2023-03-04T08:36:59;97282.31;;;2.97;71.64
41044;BME280;51680;49.806;18.774;2023-03-04T08:40:00;97285.44;;;3.05;71.47
41044;BME280;51680;49.806;18.774;2023-03-04T08:43:02;97288.69;;;3.10;70.97
41044;BME280;51680;49.806;18.774;2023-03-04T08:46:04;97286.91;;;3.12;71.11
41044;BME280;51680;49.806;18.774;2023-03-04T08:49:10;97299.63;;;3.17;71.17
41044;BME280;51680;49.806;18.774;2023-03-04T08:52:12;97294.41;;;3.18;70.71
41044;BME280;51680;49.806;18.774;2023-03-04T08:55:13;97305.41;;;3.23;70.81
41044;BME280;51680;49.806;18.774;2023-03-04T08:58:15;97306.97;;;3.27;70.39
41044;BME280;51680;49.806;18.774;2023-03-04T09:01:17;97306.75;;;3.33;70.42
41044;BME280;51680;49.806;18.774;2023-03-04T09:04:20;97313.81;;;3.28;70.34
41044;BME280;51680;49.806;18.774;2023-03-04T09:07:22;97310.34;;;3.29;70.34
41044;BME280;51680;49.806;18.774;2023-03-04T09:10:24;97323.06;;;3.34;70.56
41044;BME280;51680;49.806;18.774;2023-03-04T09:13:28;97323.63;;;3.42;70.25
41044;BME280;51680;49.806;18.774;2023-03-04T09:16:30;97330.75;;;3.35;70.33
41044;BME280;51680;49.806;18.774;2023-03-04T09:19:33;97331.44;;;3.40;70.21
41044;BME280;51680;49.806;18.774;2023-03-04T09:22:35;97337.59;;;3.36;70.07
41044;BME280;51680;49.806;18.774;2023-03-04T09:25:37;97355.84;;;3.30;70.19
41044;BME280;51680;49.806;18.774;2023-03-04T09:28:39;97352.50;;;3.28;70.13
41044;BME280;51680;49.806;18.774;2023-03-04T09:31:41;97358.66;;;3.24;70.32
41044;BME280;51680;49.806;18.774;2023-03-04T09:34:44;97356.34;;;3.17;70.24
41044;BME280;51680;49.806;18.774;2023-03-04T09:37:46;97360.56;;;3.19;70.13
41044;BME280;51680;49.806;18.774;2023-03-04T09:40:49;97366.63;;;3.18;70.26
41044;BME280;51680;49.806;18.774;2023-03-04T09:43:51;97352.69;;;3.24;70.14
41044;BME280;51680;49.806;18.774;2023-03-04T09:46:55;97346.22;;;3.58;69.66
41044;BME280;51680;49.806;18.774;2023-03-04T09:50:02;97343.81;;;4.20;68.70
41044;BME280;51680;49.806;18.774;2023-03-04T09:53:06;97319.56;;;5.42;66.20
41044;BME280;51680;49.806;18.774;2023-03-04T09:56:15;97311.03;;;6.65;63.73
41044;BME280;51680;49.806;18.774;2023-03-04T09:59:23;97308.19;;;7.21;60.33
41044;BME280;51680;49.806;18.774;2023-03-04T10:02:30;97296.91;;;7.37;59.45
41044;BME280;51680;49.806;18.774;2023-03-04T10:05:41;97298.88;;;7.17;59.07
41044;BME280;51680;49.806;18.774;2023-03-04T10:08:52;97297.84;;;6.87;58.45
41044;BME280;51680;49.806;18.774;2023-03-04T10:12:00;97302.16;;;6.54;60.10
41044;BME280;51680;49.806;18.774;2023-03-04T10:15:06;97302.81;;;6.40;61.34
41044;BME280;51680;49.806;18.774;2023-03-04T10:18:18;97292.09;;;6.12;61.06
41044;BME280;51680;49.806;18.774;2023-03-04T10:21:29;97292.81;;;6.16;60.54
41044;BME280;51680;49.806;18.774;2023-03-04T10:24:31;97292.25;;;6.26;61.51
41044;BME280;51680;49.806;18.774;2023-03-04T10:27:33;97286.09;;;5.93;61.21
41044;BME280;51680;49.806;18.774;2023-03-04T10:30:40;97291.41;;;5.72;61.47
41044;BME280;51680;49.806;18.774;2023-03-04T10:33:45;97286.03;;;5.39;62.37
41044;BME280;51680;49.806;18.774;2023-03-04T10:36:53;97291.16;;;5.22;61.59
41044;BME280;51680;49.806;18.774;2023-03-04T10:39:59;97290.03;;;4.89;63.52
41044;BME280;51680;49.806;18.774;2023-03-04T10:43:01;97284.81;;;4.71;63.71
41044;BME280;51680;49.806;18.774;2023-03-04T10:46:10;97279.19;;;4.61;64.18
41044;BME280;51680;49.806;18.774;2023-03-04T10:49:13;97277.97;;;4.70;64.25
41044;BME280;51680;49.806;18.774;2023-03-04T10:52:25;97271.81;;;4.72;64.52
41044;BME280;51680;49.806;18.774;2023-03-04T10:55:28;97269.13;;;4.75;64.03
41044;BME280;51680;49.806;18.774;2023-03-04T10:58:31;97256.38;;;4.51;63.98
41044;BME280;51680;49.806;18.774;2023-03-04T11:01:33;97252.41;;;4.44;64.08
41044;BME280;51680;49.806;18.774;2023-03-04T11:04:35;97249.88;;;4.22;65.31
41044;BME280;51680;49.806;18.774;2023-03-04T11:07:41;97251.19;;;4.11;65.11
41044;BME280;51680;49.806;18.774;2023-03-04T11:10:44;97249.97;;;4.19;65.70
41044;BME280;51680;49.806;18.774;2023-03-04T11:13:50;97238.34;;;4.49;65.75
41044;BME280;51680;49.806;18.774;2023-03-04T11:16:55;97240.69;;;4.75;65.28
41044;BME280;51680;49.806;18.774;2023-03-04T11:20:04;97231.31;;;4.73;64.44
41044;BME280;51680;49.806;18.774;2023-03-04T11:23:12;97237.19;;;4.76;64.33
41044;BME280;51680;49.806;18.774;2023-03-04T11:26:18;97227.22;;;4.67;64.46
41044;BME280;51680;49.806;18.774;2023-03-04T11:29:25;97226.31;;;4.68;64.39
41044;BME280;51680;49.806;18.774;2023-03-04T11:32:31;97220.06;;;4.74;64.74
41044;BME280;51680;49.806;18.774;2023-03-04T11:35:45;97213.63;;;4.82;63.34
41044;BME280;51680;49.806;18.774;2023-03-04T11:38:50;97213.28;;;4.90;64.39
41044;BME280;51680;49.806;18.774;2023-03-04T11:41:56;97217.34;;;4.95;64.29
41044;BME280;51680;49.806;18.774;2023-03-04T11:44:59;97210.00;;;5.05;63.88
41044;BME280;51680;49.806;18.774;2023-03-04T11:48:07;97209.94;;;5.06;63.35
41044;BME280;51680;49.806;18.774;2023-03-04T11:51:20;97194.66;;;5.02;62.12
41044;BME280;51680;49.806;18.774;2023-03-04T11:54:31;97199.47;;;5.09;63.22
41044;BME280;51680;49.806;18.774;2023-03-04T11:57:41;97183.97;;;5.09;63.07
41044;BME280;51680;49.806;18.774;2023-03-04T12:00:51;97198.50;;;5.12;62.96
41044;BME280;51680;49.806;18.774;2023-03-04T12:04:03;97188.09;;;5.13;62.96
41044;BME280;51680;49.806;18.774;2023-03-04T12:07:20;97184.97;;;5.24;62.15
41044;BME280;51680;49.806;18.774;2023-03-04T12:10:32;97186.16;;;5.35;62.99
41044;BME280;51680;49.806;18.774;2023-03-04T12:17:27;97174.75;;;5.75;62.09
41044;BME280;51680;49.806;18.774;2023-03-04T12:24:21;97160.25;;;6.06;59.45
41044;BME280;51680;49.806;18.774;2023-03-04T12:27:33;97162.84;;;6.06;61.24
41044;BME280;51680;49.806;18.774;2023-03-04T12:30:48;97152.72;;;6.19;60.65
41044;BME280;51680;49.806;18.774;2023-03-04T12:34:04;97145.47;;;6.25;60.54
41044;BME280;51680;49.806;18.774;2023-03-04T12:37:37;97132.22;;;5.97;59.01
41044;BME280;51680;49.806;18.774;2023-03-04T12:40:48;97126.75;;;5.86;59.65
41044;BME280;51680;49.806;18.774;2023-03-04T12:43:55;97129.81;;;5.94;60.72
41044;BME280;51680;49.806;18.774;2023-03-04T12:47:22;97128.59;;;5.84;58.57
41044;BME280;51680;49.806;18.774;2023-03-04T12:50:34;97125.22;;;5.82;60.37
41044;BME280;51680;49.806;18.774;2023-03-04T12:53:42;97130.19;;;5.87;60.96
41044;BME280;51680;49.806;18.774;2023-03-04T12:56:51;97124.16;;;5.86;60.02
41044;BME280;51680;49.806;18.774;2023-03-04T12:59:59;97127.22;;;5.59;60.29
41044;BME280;51680;49.806;18.774;2023-03-04T13:03:13;97129.59;;;5.63;60.52
41044;BME280;51680;49.806;18.774;2023-03-04T13:06:27;97131.88;;;5.69;60.61
41044;BME280;51680;49.806;18.774;2023-03-04T13:09:32;97129.75;;;5.60;61.10
41044;BME280;51680;49.806;18.774;2023-03-04T13:12:45;97119.22;;;5.63;60.37
41044;BME280;51680;49.806;18.774;2023-03-04T13:16:00;97121.63;;;5.68;59.89
41044;BME280;51680;49.806;18.774;2023-03-04T13:19:02;97119.03;;;5.68;60.91
41044;BME280;51680;49.806;18.774;2023-03-04T13:22:33;97114.34;;;5.74;60.26
41044;BME280;51680;49.806;18.774;2023-03-04T13:25:42;97122.25;;;5.54;60.94
41044;BME280;51680;49.806;18.774;2023-03-04T13:28:44;97113.06;;;5.49;61.02
41044;BME280;51680;49.806;18.774;2023-03-04T13:31:56;97110.25;;;5.53;59.17
41044;BME280;51680;49.806;18.774;2023-03-04T13:34:58;97104.75;;;5.59;60.74
41044;BME280;51680;49.806;18.774;2023-03-04T13:38:19;97105.75;;;5.57;60.53
41044;BME280;51680;49.806;18.774;2023-03-04T13:41:22;97103.88;;;5.60;61.03
41044;BME280;51680;49.806;18.774;2023-03-04T13:47:59;97102.78;;;5.47;60.72
41044;BME280;51680;49.806;18.774;2023-03-04T13:51:02;97099.47;;;5.27;60.66
41044;BME280;51680;49.806;18.774;2023-03-04T13:54:14;97095.72;;;5.15;60.63
41044;BME280;51680;49.806;18.774;2023-03-04T13:57:19;97089.25;;;5.07;61.13
41044;BME280;51680;49.806;18.774;2023-03-04T14:00:21;97092.94;;;5.01;61.43
41044;BME280;51680;49.806;18.774;2023-03-04T14:03:25;97086.53;;;4.91;61.15
41044;BME280;51680;49.806;18.774;2023-03-04T14:06:28;97090.31;;;4.84;61.57
41044;BME280;51680;49.806;18.774;2023-03-04T14:09:33;97090.75;;;4.75;61.75
41044;BME280;51680;49.806;18.774;2023-03-04T14:12:38;97084.72;;;4.75;61.52
41044;BME280;51680;49.806;18.774;2023-03-04T14:15:41;97088.34;;;4.71;61.43
41044;BME280;51680;49.806;18.774;2023-03-04T14:18:43;97074.66;;;4.69;61.95
41044;BME280;51680;49.806;18.774;2023-03-04T14:21:45;97090.72;;;4.57;62.30
41044;BME280;51680;49.806;18.774;2023-03-04T14:25:00;97080.25;;;4.60;61.86
41044;BME280;51680;49.806;18.774;2023-03-04T14:28:05;97088.41;;;4.51;62.36
41044;BME280;51680;49.806;18.774;2023-03-04T14:31:15;97080.81;;;4.48;62.72
41044;BME280;51680;49.806;18.774;2023-03-04T14:34:24;97079.19;;;4.45;62.95
41044;BME280;51680;49.806;18.774;2023-03-04T14:37:33;97086.06;;;4.46;63.29
41044;BME280;51680;49.806;18.774;2023-03-04T14:40:41;97082.69;;;4.44;62.92
41044;BME280;51680;49.806;18.774;2023-03-04T14:43:50;97079.34;;;4.42;62.97
41044;BME280;51680;49.806;18.774;2023-03-04T14:46:56;97086.19;;;4.43;63.30
41044;BME280;51680;49.806;18.774;2023-03-04T14:50:03;97083.72;;;4.40;63.08
41044;BME280;51680;49.806;18.774;2023-03-04T14:53:14;97080.50;;;4.35;63.64
41044;BME280;51680;49.806;18.774;2023-03-04T14:56:26;97085.19;;;4.27;63.82
41044;BME280;51680;49.806;18.774;2023-03-04T14:59:29;97084.97;;;4.32;63.62
41044;BME280;51680;49.806;18.774;2023-03-04T15:02:35;97079.19;;;4.27;63.55
41044;BME280;51680;49.806;18.774;2023-03-04T15:05:38;97094.56;;;4.30;63.52
41044;BME280;51680;49.806;18.774;2023-03-04T15:08:40;97079.00;;;4.11;64.19
41044;BME280;51680;49.806;18.774;2023-03-04T15:11:48;97088.13;;;4.20;63.92
41044;BME280;51680;49.806;18.774;2023-03-04T15:14:52;97082.03;;;4.21;63.73
41044;BME280;51680;49.806;18.774;2023-03-04T15:17:57;97071.97;;;4.15;63.67
41044;BME280;51680;49.806;18.774;2023-03-04T15:21:02;97079.91;;;4.10;64.21
41044;BME280;51680;49.806;18.774;2023-03-04T15:24:06;97076.94;;;4.19;64.06
41044;BME280;51680;49.806;18.774;2023-03-04T15:27:10;97071.25;;;4.11;64.31
41044;BME280;51680;49.806;18.774;2023-03-04T15:30:15;97067.06;;;4.09;64.17
41044;BME280;51680;49.806;18.774;2023-03-04T15:33:17;97068.81;;;4.08;64.32
41044;BME280;51680;49.806;18.774;2023-03-04T15:36:21;97076.34;;;4.13;64.45
41044;BME280;51680;49.806;18.774;2023-03-04T15:39:23;97067.78;;;4.12;64.30
41044;BME280;51680;49.806;18.774;2023-03-04T15:42:28;97067.97;;;4.08;64.55
41044;BME280;51680;49.806;18.774;2023-03-04T15:45:32;97075.94;;;4.03;64.53
41044;BME280;51680;49.806;18.774;2023-03-04T15:48:35;97064.56;;;4.07;64.60
41044;BME280;51680;49.806;18.774;2023-03-04T15:51:37;97066.38;;;4.05;64.41
41044;BME280;51680;49.806;18.774;2023-03-04T15:54:39;97050.59;;;4.11;64.10
41044;BME280;51680;49.806;18.774;2023-03-04T15:57:43;97048.81;;;4.13;64.18
41044;BME280;51680;49.806;18.774;2023-03-04T16:00:46;97051.22;;;4.16;64.46
41044;BME280;51680;49.806;18.774;2023-03-04T16:03:47;97051.09;;;4.19;64.17
41044;BME280;51680;49.806;18.774;2023-03-04T16:06:49;97045.94;;;4.19;64.79
41044;BME280;51680;49.806;18.774;2023-03-04T16:09:55;97041.81;;;4.15;64.42
41044;BME280;51680;49.806;18.774;2023-03-04T16:12:59;97036.66;;;4.15;64.45
41044;BME280;51680;49.806;18.774;2023-03-04T16:16:01;97037.69;;;4.11;64.67
41044;BME280;51680;49.806;18.774;2023-03-04T16:19:02;97041.97;;;4.12;64.40
41044;BME280;51680;49.806;18.774;2023-03-04T16:22:04;97044.91;;;4.23;64.47
41044;BME280;51680;49.806;18.774;2023-03-04T16:25:08;97040.59;;;4.24;64.14
41044;BME280;51680;49.806;18.774;2023-03-04T16:28:12;97050.06;;;4.23;64.27